createdAt,value
2018-06-02T00:02:19.465Z,100715.78
2018-06-02T00:04:47.275Z,100718.52
2018-06-02T00:07:15.633Z,100718.66
2018-06-02T00:09:43.895Z,100718.02
2018-06-02T00:12:12.232Z,100715.17
2018-06-02T00:14:40.547Z,100710.37
2018-06-02T00:17:09.359Z,100706.83
2018-06-02T00:19:36.973Z,100706.22
2018-06-02T00:22:05.265Z,100709.72
2018-06-02T00:24:32.836Z,100705.25
2018-06-02T00:27:00.460Z,100703.81
2018-06-02T00:29:28.096Z,100708.20
2018-06-02T00:31:55.850Z,100697.80
2018-06-02T00:34:23.751Z,100702.06
2018-06-02T00:36:51.473Z,100701.16
2018-06-02T00:39:19.120Z,100698.30
2018-06-02T00:41:47.090Z,100699.81
2018-06-02T00:44:14.950Z,100698.09
2018-06-02T00:46:42.616Z,100697.59
2018-06-02T00:49:10.244Z,100700.20
2018-06-02T00:51:37.942Z,100701.87
2018-06-02T00:54:05.579Z,100706.69
2018-06-02T00:56:33.249Z,100702.27
2018-06-02T00:59:00.979Z,100706.11
2018-06-02T01:01:28.773Z,100702.70
2018-06-02T01:03:56.409Z,100705.72
2018-06-02T01:06:24.909Z,100706.46
2018-06-02T01:08:53.409Z,100707.86
2018-06-02T01:11:21.057Z,100700.94
2018-06-02T01:13:49.655Z,100701.87
2018-06-02T01:16:18.072Z,100706.23
2018-06-02T01:18:46.365Z,100708.13
2018-06-02T01:21:14.959Z,100712.44
2018-06-02T01:23:43.406Z,100710.83
2018-06-02T01:26:11.121Z,100711.42
2018-06-02T01:28:38.761Z,100706.48
2018-06-02T01:31:06.547Z,100713.61
2018-06-02T01:33:34.164Z,100710.88
2018-06-02T01:36:01.922Z,100715.06
2018-06-02T01:38:29.846Z,100712.20
2018-06-02T01:40:57.552Z,100713.15
2018-06-02T01:43:25.680Z,100705.80
2018-06-02T01:45:53.516Z,100708.91
2018-06-02T01:48:21.305Z,100701.16
2018-06-02T01:50:50.267Z,100703.23
2018-06-02T01:53:18.830Z,100694.45
2018-06-02T01:55:48.184Z,100701.59
2018-06-02T01:58:17.284Z,100697.24
2018-06-02T02:00:44.920Z,100695.73
2018-06-02T02:03:12.604Z,100694.30
2018-06-02T02:05:40.880Z,100695.02
2018-06-02T02:08:09.057Z,100699.80
2018-06-02T02:10:36.715Z,100700.42
2018-06-02T02:13:05.121Z,100692.15
2018-06-02T02:15:33.634Z,100692.36
2018-06-02T02:18:01.880Z,100691.48
2018-06-02T02:20:29.884Z,100690.97
2018-06-02T02:22:58.094Z,100697.59
2018-06-02T02:25:25.654Z,100697.17
2018-06-02T02:27:53.213Z,100690.05
2018-06-02T02:30:20.801Z,100687.98
2018-06-02T02:32:48.380Z,100692.95
2018-06-02T02:35:16.072Z,100691.39
2018-06-02T02:37:43.709Z,100692.63
2018-06-02T02:40:11.284Z,100688.91
2018-06-02T02:42:38.857Z,100685.91
2018-06-02T02:45:06.462Z,100686.00
2018-06-02T02:47:34.100Z,100683.52
2018-06-02T02:50:01.787Z,100678.50
2018-06-02T02:52:29.473Z,100680.44
2018-06-02T02:54:59.657Z,100678.59
2018-06-02T02:57:27.970Z,100681.34
2018-06-02T02:59:55.582Z,100681.19
2018-06-02T03:02:23.143Z,100680.31
2018-06-02T03:04:50.754Z,100673.77
2018-06-02T03:07:19.112Z,100672.69
2018-06-02T03:09:47.732Z,100671.44
2018-06-02T03:12:15.359Z,100669.25
2018-06-02T03:14:43.611Z,100670.45
2018-06-02T03:17:11.191Z,100671.97
2018-06-02T03:19:39.353Z,100660.82
2018-06-02T03:22:07.743Z,100667.92
2018-06-02T03:24:35.318Z,100665.06
2018-06-02T03:27:02.925Z,100662.70
2018-06-02T03:29:31.460Z,100667.45
2018-06-02T03:31:59.017Z,100660.91
2018-06-02T03:34:26.588Z,100662.38
2018-06-02T03:36:54.180Z,100663.84
2018-06-02T03:39:21.745Z,100664.24
2018-06-02T03:41:49.304Z,100660.70
2018-06-02T03:44:17.012Z,100672.56
2018-06-02T03:46:44.747Z,100662.38
2018-06-02T03:49:12.307Z,100668.23
2018-06-02T03:51:39.973Z,100668.42
2018-06-02T03:54:07.575Z,100663.00
2018-06-02T03:56:36.204Z,100654.71
2018-06-02T03:59:04.441Z,100656.78
2018-06-02T04:01:32.988Z,100663.52
2018-06-02T04:04:00.523Z,100669.62
2018-06-02T04:06:28.682Z,100668.95
2018-06-02T04:08:56.939Z,100667.58
2018-06-02T04:11:25.021Z,100661.09
2018-06-02T04:13:52.550Z,100666.91
2018-06-02T04:16:20.808Z,100664.79
2018-06-02T04:18:48.436Z,100658.15
2018-06-02T04:21:16.781Z,100661.98
2018-06-02T04:23:44.895Z,100659.95
2018-06-02T04:26:12.467Z,100666.03
2018-06-02T04:28:40.779Z,100653.25
2018-06-02T04:31:08.311Z,100654.99
2018-06-02T04:33:36.572Z,100662.50
2018-06-02T04:36:04.120Z,100664.07
2018-06-02T04:38:31.842Z,100663.29
2018-06-02T04:40:59.447Z,100668.05
2018-06-02T04:43:27.011Z,100667.61
2018-06-02T04:45:54.563Z,100668.38
2018-06-02T04:48:22.277Z,100668.49
2018-06-02T04:50:49.807Z,100665.48
2018-06-02T04:53:17.517Z,100662.56
2018-06-02T04:55:46.096Z,100662.00
2018-06-02T04:58:14.221Z,100655.56
2018-06-02T05:00:41.788Z,100658.20
2018-06-02T05:03:09.364Z,100657.41
2018-06-02T05:05:37.474Z,100663.25
2018-06-02T05:08:05.759Z,100661.23
2018-06-02T05:10:33.379Z,100657.84
2018-06-02T05:13:00.929Z,100664.03
2018-06-02T05:15:29.506Z,100655.49
2018-06-02T05:17:57.049Z,100655.16
2018-06-02T05:20:25.274Z,100647.39
2018-06-02T05:22:53.448Z,100652.31
2018-06-02T05:25:21.004Z,100656.27
2018-06-02T05:27:48.547Z,100656.89
2018-06-02T05:30:16.792Z,100650.38
2018-06-02T05:32:44.490Z,100654.53
2018-06-02T05:35:12.065Z,100652.51
2018-06-02T05:37:39.719Z,100658.81
2018-06-02T05:40:07.270Z,100650.96
2018-06-02T05:42:34.843Z,100654.55
2018-06-02T05:45:02.623Z,100662.45
2018-06-02T05:47:30.163Z,100662.93
2018-06-02T05:49:57.708Z,100658.50
2018-06-02T05:52:25.295Z,100655.01
2018-06-02T05:54:53.723Z,100655.98
2018-06-02T05:57:22.184Z,100659.42
2018-06-02T05:59:49.777Z,100653.46
2018-06-02T06:02:17.377Z,100657.87
2018-06-02T06:04:44.977Z,100656.39
2018-06-02T06:07:13.331Z,100653.41
2018-06-02T06:09:41.537Z,100650.69
2018-06-02T06:12:09.095Z,100652.48
2018-06-02T06:14:37.141Z,100649.19
2018-06-02T06:17:04.766Z,100646.16
2018-06-02T06:19:33.207Z,100649.41
2018-06-02T06:22:01.872Z,100646.55
2018-06-02T06:24:29.415Z,100646.95
2018-06-02T06:26:56.977Z,100647.19
2018-06-02T06:29:26.049Z,100647.69
2018-06-02T06:31:53.615Z,100643.41
2018-06-02T06:34:22.388Z,100644.90
2018-06-02T06:36:49.948Z,100640.21
2018-06-02T06:39:17.543Z,100638.83
2018-06-02T06:41:45.256Z,100638.78
2018-06-02T06:44:12.845Z,100644.80
2018-06-02T06:46:40.542Z,100641.57
2018-06-02T06:49:08.227Z,100648.69
2018-06-02T06:51:35.760Z,100641.75
2018-06-02T06:54:03.378Z,100642.26
2018-06-02T06:56:31.614Z,100634.05
2018-06-02T06:58:59.896Z,100635.45
2018-06-02T07:01:27.462Z,100634.80
2018-06-02T07:03:55.010Z,100632.89
2018-06-02T07:06:23.081Z,100627.02
2018-06-02T07:08:51.264Z,100624.98
2018-06-02T07:11:18.823Z,100612.86
2018-06-02T07:13:46.453Z,100624.48
2018-06-02T07:16:14.831Z,100618.53
2018-06-02T07:18:42.368Z,100611.25
2018-06-02T07:21:10.491Z,100612.11
2018-06-02T07:23:38.665Z,100606.55
2018-06-02T07:26:06.229Z,100604.30
2018-06-02T07:28:34.634Z,100606.08
2018-06-02T07:31:02.339Z,100604.88
2018-06-02T07:33:29.896Z,100608.55
2018-06-02T07:35:57.464Z,100603.21
2018-06-02T07:38:25.029Z,100610.31
2018-06-02T07:40:52.711Z,100605.82
2018-06-02T07:43:20.373Z,100604.05
2018-06-02T07:45:48.063Z,100602.28
2018-06-02T07:48:15.672Z,100611.55
2018-06-02T07:50:43.385Z,100610.91
2018-06-02T07:53:10.973Z,100610.41
2018-06-02T07:55:39.378Z,100610.90
2018-06-02T07:58:08.399Z,100610.75
2018-06-02T08:00:35.990Z,100621.73
2018-06-02T08:03:03.712Z,100619.31
2018-06-02T08:05:32.081Z,100622.00
2018-06-02T08:08:00.527Z,100621.62
2018-06-02T08:10:28.083Z,100618.17
2018-06-02T08:12:55.701Z,100611.17
2018-06-02T08:15:23.911Z,100615.91
2018-06-02T08:17:51.462Z,100617.21
2018-06-02T08:20:20.020Z,100613.06
2018-06-02T08:22:48.482Z,100617.05
2018-06-02T08:25:16.160Z,100617.94
2018-06-02T08:27:43.691Z,100623.28
2018-06-02T08:30:12.005Z,100619.89
2018-06-02T08:32:39.547Z,100611.90
2018-06-02T08:35:07.112Z,100608.58
2018-06-02T08:37:34.692Z,100613.22
2018-06-02T08:40:02.467Z,100614.09
2018-06-02T08:42:30.054Z,100618.27
2018-06-02T08:44:58.016Z,100620.05
2018-06-02T08:47:25.573Z,100620.25
2018-06-02T08:49:53.135Z,100616.94
2018-06-02T08:52:20.715Z,100616.27
2018-06-02T08:54:48.965Z,100618.56
2018-06-02T08:57:18.602Z,100616.14
2018-06-02T08:59:46.260Z,100615.05
2018-06-02T09:02:13.838Z,100614.64
2018-06-02T09:04:41.438Z,100612.73
2018-06-02T09:07:09.701Z,100606.09
2018-06-02T09:09:38.294Z,100615.86
2018-06-02T09:12:05.836Z,100619.53
2018-06-02T09:14:34.244Z,100614.45
2018-06-02T09:17:02.044Z,100610.92
2018-06-02T09:19:30.104Z,100612.27
2018-06-02T09:21:58.083Z,100612.83
2018-06-02T09:24:25.615Z,100612.48
2018-06-02T09:26:53.160Z,100615.02
2018-06-02T09:29:21.223Z,100607.76
2018-06-02T09:31:48.828Z,100612.14
2018-06-02T09:34:16.566Z,100613.70
2018-06-02T09:36:44.172Z,100606.66
2018-06-02T09:39:11.973Z,100604.99
2018-06-02T09:41:39.542Z,100598.84
2018-06-02T09:44:07.217Z,100589.94
2018-06-02T09:46:34.804Z,100599.05
2018-06-02T09:49:02.453Z,100595.22
2018-06-02T09:51:30.050Z,100594.00
2018-06-02T09:53:57.622Z,100596.22
2018-06-02T09:56:26.071Z,100598.30
2018-06-02T09:58:54.133Z,100589.30
2018-06-02T10:01:21.729Z,100594.93
2018-06-02T10:03:49.276Z,100590.23
2018-06-02T10:06:17.762Z,100588.58
2018-06-02T10:08:45.806Z,100593.61
2018-06-02T10:11:13.547Z,100594.84
2018-06-02T10:13:41.082Z,100588.17
2018-06-02T10:16:09.272Z,100590.53
2018-06-02T10:18:36.824Z,100590.52
2018-06-02T10:21:04.703Z,100589.88
2018-06-02T10:23:32.951Z,100593.67
2018-06-02T10:26:00.487Z,100588.41
2018-06-02T10:28:28.074Z,100590.77
2018-06-02T10:30:56.530Z,100590.03
2018-06-02T10:33:24.084Z,100595.31
2018-06-02T10:35:51.604Z,100588.41
2018-06-02T10:38:19.206Z,100588.41
2018-06-02T10:40:46.885Z,100586.30
2018-06-02T10:43:14.446Z,100587.11
2018-06-02T10:45:42.031Z,100585.98
2018-06-02T10:48:09.589Z,100584.59
2018-06-02T10:50:37.147Z,100577.70
2018-06-02T10:53:04.752Z,100576.23
2018-06-02T10:55:33.166Z,100585.58
2018-06-02T10:58:01.405Z,100581.35
2018-06-02T11:00:29.040Z,100576.64
2018-06-02T11:02:56.586Z,100578.58
2018-06-02T11:05:24.925Z,100576.15
2018-06-02T11:07:53.028Z,100578.75
2018-06-02T11:10:20.628Z,100582.65
2018-06-02T11:12:48.201Z,100572.02
2018-06-02T11:15:16.881Z,100588.98
2018-06-02T11:17:44.445Z,100577.70
2018-06-02T11:20:12.653Z,100577.45
2018-06-02T11:22:40.705Z,100575.83
2018-06-02T11:25:08.276Z,100569.50
2018-06-02T11:27:35.836Z,100570.00
2018-06-02T11:30:04.103Z,100573.00
2018-06-02T11:32:31.662Z,100577.59
2018-06-02T11:34:59.219Z,100568.82
2018-06-02T11:37:26.818Z,100564.55
2018-06-02T11:39:54.465Z,100565.86
2018-06-02T11:42:22.180Z,100571.63
2018-06-02T11:44:49.771Z,100566.59
2018-06-02T11:47:17.468Z,100569.76
2018-06-02T11:49:45.040Z,100570.33
2018-06-02T11:52:12.617Z,100570.84
2018-06-02T11:54:41.353Z,100562.73
2018-06-02T11:57:09.555Z,100561.17
2018-06-02T11:59:37.813Z,100560.56
2018-06-02T12:02:05.437Z,100563.52
2018-06-02T12:04:33.076Z,100564.30
2018-06-02T12:07:01.059Z,100555.53
2018-06-02T12:09:29.015Z,100551.38
2018-06-02T12:11:56.592Z,100551.83
2018-06-02T12:14:24.144Z,100550.69
2018-06-02T12:16:52.387Z,100541.90
2018-06-02T12:19:19.924Z,100550.83
2018-06-02T12:21:48.347Z,100554.84
2018-06-02T12:24:16.016Z,100551.31
2018-06-02T12:26:43.607Z,100547.01
2018-06-02T12:29:11.787Z,100531.56
2018-06-02T12:31:39.390Z,100535.00
2018-06-02T12:34:06.952Z,100541.09
2018-06-02T12:36:34.519Z,100531.58
2018-06-02T12:39:02.180Z,100526.08
2018-06-02T12:41:29.750Z,100538.19
2018-06-02T12:43:57.367Z,100525.98
2018-06-02T12:46:24.996Z,100526.16
2018-06-02T12:48:52.556Z,100526.78
2018-06-02T12:51:20.155Z,100524.02
2018-06-02T12:53:47.890Z,100531.58
2018-06-02T12:56:16.711Z,100517.20
2018-06-02T12:58:44.947Z,100510.72
2018-06-02T13:01:12.506Z,100514.61
2018-06-02T13:03:40.100Z,100512.78
2018-06-02T13:06:08.456Z,100503.67
2018-06-02T13:08:36.794Z,100512.05
2018-06-02T13:11:04.354Z,100514.16
2018-06-02T13:13:31.946Z,100507.52
2018-06-02T13:16:00.244Z,100510.55
2018-06-02T13:18:27.802Z,100511.30
2018-06-02T13:20:55.993Z,100504.00
2018-06-02T13:23:24.149Z,100504.47
2018-06-02T13:25:51.737Z,100496.34
2018-06-02T13:28:19.302Z,100493.95
2018-06-02T13:30:47.594Z,100491.55
2018-06-02T13:33:15.152Z,100492.36
2018-06-02T13:35:42.773Z,100489.09
2018-06-02T13:38:10.358Z,100490.03
2018-06-02T13:40:37.922Z,100487.66
2018-06-02T13:43:05.512Z,100489.47
2018-06-02T13:45:33.362Z,100479.88
2018-06-02T13:48:00.920Z,100481.28
2018-06-02T13:50:28.468Z,100479.30
2018-06-02T13:52:56.095Z,100481.16
2018-06-02T13:55:24.581Z,100484.05
2018-06-02T13:57:53.232Z,100482.86
2018-06-02T14:00:20.788Z,100483.22
2018-06-02T14:02:48.341Z,100474.35
2018-06-02T14:05:16.663Z,100470.24
2018-06-02T14:07:44.214Z,100473.09
2018-06-02T14:10:12.450Z,100466.16
2018-06-02T14:12:40.016Z,100475.43
2018-06-02T14:15:08.245Z,100467.95
2018-06-02T14:17:35.795Z,100468.69
2018-06-02T14:20:03.955Z,100475.94
2018-06-02T14:22:32.145Z,100477.92
2018-06-02T14:24:59.701Z,100464.80
2018-06-02T14:27:27.252Z,100463.23
2018-06-02T14:29:55.567Z,100455.38
2018-06-02T14:32:23.143Z,100454.23
2018-06-02T14:34:50.938Z,100457.80
2018-06-02T14:37:18.519Z,100459.30
2018-06-02T14:39:46.239Z,100456.36
2018-06-02T14:42:13.786Z,100451.41
2018-06-02T14:44:41.513Z,100443.92
2018-06-02T14:47:09.063Z,100446.68
2018-06-02T14:49:36.619Z,100444.89
2018-06-02T14:52:04.236Z,100441.72
2018-06-02T14:54:31.797Z,100438.13
2018-06-02T14:57:00.017Z,100444.23
2018-06-02T14:59:28.314Z,100438.16
2018-06-02T15:01:55.923Z,100436.43
2018-06-02T15:04:23.469Z,100439.20
2018-06-02T15:06:51.521Z,100431.66
2018-06-02T15:09:19.987Z,100433.56
2018-06-02T15:11:47.610Z,100430.49
2018-06-02T15:14:15.156Z,100432.03
2018-06-02T15:16:43.601Z,100430.61
2018-06-02T15:19:11.179Z,100432.25
2018-06-02T15:21:39.463Z,100430.00
2018-06-02T15:24:07.096Z,100436.25
2018-06-02T15:26:34.648Z,100435.54
2018-06-02T15:29:03.141Z,100438.00
2018-06-02T15:31:30.677Z,100430.09
2018-06-02T15:33:58.239Z,100434.30
2018-06-02T15:36:25.802Z,100431.61
2018-06-02T15:38:53.337Z,100428.41
2018-06-02T15:41:20.897Z,100431.55
2018-06-02T15:43:48.504Z,100431.81
2018-06-02T15:46:16.261Z,100426.39
2018-06-02T15:48:43.799Z,100428.86
2018-06-02T15:51:11.413Z,100424.91
2018-06-02T15:53:39.279Z,100422.79
2018-06-02T15:56:07.431Z,100426.44
2018-06-02T15:58:35.717Z,100424.00
2018-06-02T16:01:03.383Z,100422.39
2018-06-02T16:03:30.985Z,100410.92
2018-06-02T16:05:59.374Z,100408.78
2018-06-02T16:08:27.725Z,100408.09
2018-06-02T16:10:55.298Z,100406.32
2018-06-02T16:13:22.857Z,100404.52
2018-06-02T16:15:50.985Z,100402.41
2018-06-02T16:18:18.536Z,100410.16
2018-06-02T16:20:48.099Z,100409.41
2018-06-02T16:23:16.552Z,100409.39
2018-06-02T16:25:44.106Z,100409.01
2018-06-02T16:28:11.640Z,100406.30
2018-06-02T16:30:39.612Z,100399.60
2018-06-02T16:33:07.160Z,100400.25
2018-06-02T16:35:34.811Z,100396.38
2018-06-02T16:38:02.431Z,100397.83
2018-06-02T16:40:30.135Z,100394.41
2018-06-02T16:42:57.670Z,100392.55
2018-06-02T16:45:25.493Z,100395.28
2018-06-02T16:47:53.042Z,100397.13
2018-06-02T16:50:20.586Z,100392.63
2018-06-02T16:52:48.160Z,100394.83
2018-06-02T16:55:16.564Z,100395.55
2018-06-02T16:57:45.111Z,100390.23
2018-06-02T17:00:12.649Z,100391.93
2018-06-02T17:02:40.209Z,100390.28
2018-06-02T17:05:08.578Z,100391.77
2018-06-02T17:07:36.136Z,100394.53
2018-06-02T17:10:05.166Z,100394.09
2018-06-02T17:12:32.737Z,100406.58
2018-06-02T17:15:01.060Z,100401.23
2018-06-02T17:17:28.765Z,100403.92
2018-06-02T17:19:56.798Z,100405.41
2018-06-02T17:22:25.225Z,100407.23
2018-06-02T17:24:52.784Z,100402.22
2018-06-02T17:27:20.389Z,100402.19
2018-06-02T17:29:48.728Z,100403.31
2018-06-02T17:32:16.348Z,100395.72
2018-06-02T17:34:43.900Z,100396.45
2018-06-02T17:37:11.501Z,100394.70
2018-06-02T17:39:39.072Z,100394.80
2018-06-02T17:42:06.775Z,100393.55
2018-06-02T17:44:34.513Z,100402.39
2018-06-02T17:47:02.187Z,100402.37
2018-06-02T17:49:29.782Z,100406.67
2018-06-02T17:51:57.343Z,100401.95
2018-06-02T17:54:25.003Z,100395.42
2018-06-02T17:56:53.211Z,100392.39
2018-06-02T17:59:21.679Z,100387.62
2018-06-02T18:01:49.232Z,100389.37
2018-06-02T18:04:16.787Z,100391.04
2018-06-02T18:06:45.155Z,100391.80
2018-06-02T18:09:13.209Z,100392.48
2018-06-02T18:11:40.750Z,100387.69
2018-06-02T18:14:08.328Z,100395.67
2018-06-02T18:16:37.803Z,100389.06
2018-06-02T18:19:05.356Z,100391.73
2018-06-02T18:21:33.696Z,100392.63
2018-06-02T18:24:01.265Z,100387.16
2018-06-02T18:26:28.877Z,100385.72
2018-06-02T18:28:57.065Z,100390.05
2018-06-02T18:31:24.636Z,100392.09
2018-06-02T18:33:52.164Z,100392.38
2018-06-02T18:36:19.733Z,100390.49
2018-06-02T18:38:47.460Z,100392.85
2018-06-02T18:41:15.008Z,100386.48
2018-06-02T18:43:42.803Z,100391.34
2018-06-02T18:46:10.370Z,100390.64
2018-06-02T18:48:37.905Z,100397.03
2018-06-02T18:51:05.494Z,100399.82
2018-06-02T18:53:33.113Z,100397.91
2018-06-02T18:56:01.488Z,100393.98
2018-06-02T18:58:29.760Z,100394.80
2018-06-02T19:00:57.411Z,100391.70
2018-06-02T19:03:24.937Z,100399.25
2018-06-02T19:05:53.215Z,100399.00
2018-06-02T19:08:21.480Z,100403.58
2018-06-02T19:10:49.047Z,100406.02
2018-06-02T19:13:16.626Z,100404.50
2018-06-02T19:15:45.237Z,100411.75
2018-06-02T19:18:12.839Z,100411.82
2018-06-02T19:20:41.056Z,100415.88
2018-06-02T19:23:09.293Z,100425.70
2018-06-02T19:25:36.979Z,100427.13
2018-06-02T19:28:04.578Z,100432.19
2018-06-02T19:30:32.700Z,100426.91
2018-06-02T19:33:00.271Z,100427.58
2018-06-02T19:35:27.872Z,100432.84
2018-06-02T19:37:55.627Z,100426.75
2018-06-02T19:40:23.210Z,100424.09
2018-06-02T19:42:50.814Z,100430.76
2018-06-02T19:45:18.542Z,100424.33
2018-06-02T19:47:46.209Z,100431.75
2018-06-02T19:50:13.755Z,100434.86
2018-06-02T19:52:41.371Z,100436.25
2018-06-02T19:55:09.686Z,100438.04
2018-06-02T19:57:37.827Z,100437.41
2018-06-02T20:00:05.429Z,100437.59
2018-06-02T20:02:33.034Z,100444.06
2018-06-02T20:05:01.496Z,100446.27
2018-06-02T20:07:29.055Z,100444.51
2018-06-02T20:09:57.245Z,100447.96
2018-06-02T20:12:24.786Z,100445.64
2018-06-02T20:14:53.326Z,100452.38
2018-06-02T20:17:20.907Z,100448.94
2018-06-02T20:19:49.113Z,100459.88
2018-06-02T20:22:17.552Z,100455.20
2018-06-02T20:24:45.087Z,100461.86
2018-06-02T20:27:12.623Z,100457.21
2018-06-02T20:29:40.957Z,100456.88
2018-06-02T20:32:08.525Z,100456.30
2018-06-02T20:34:36.077Z,100455.28
2018-06-02T20:37:03.756Z,100457.84
2018-06-02T20:39:31.297Z,100455.72
2018-06-02T20:41:58.879Z,100459.35
2018-06-02T20:44:26.471Z,100466.96
2018-06-02T20:46:54.026Z,100465.11
2018-06-02T20:49:21.611Z,100472.95
2018-06-02T20:51:49.187Z,100468.92
2018-06-02T20:54:16.865Z,100465.96
2018-06-02T20:56:45.459Z,100467.68
2018-06-02T20:59:13.786Z,100470.84
2018-06-02T21:01:41.359Z,100464.34
2018-06-02T21:04:08.933Z,100463.00
2018-06-02T21:06:37.071Z,100472.84
2018-06-02T21:09:06.662Z,100468.80
2018-06-02T21:11:34.226Z,100470.33
2018-06-02T21:14:01.822Z,100467.52
2018-06-02T21:16:29.927Z,100470.95
2018-06-02T21:18:57.529Z,100471.67
2018-06-02T21:21:25.594Z,100468.39
2018-06-02T21:23:53.872Z,100472.41
2018-06-02T21:26:21.458Z,100468.22
2018-06-02T21:28:49.715Z,100474.09
2018-06-02T21:31:17.477Z,100470.28
2018-06-02T21:33:45.056Z,100479.31
2018-06-02T21:36:12.673Z,100474.68
2018-06-02T21:38:40.229Z,100475.64
2018-06-02T21:41:07.795Z,100486.95
2018-06-02T21:43:35.377Z,100483.95
2018-06-02T21:46:03.107Z,100484.53
2018-06-02T21:48:30.687Z,100486.17
2018-06-02T21:50:58.277Z,100483.72
2018-06-02T21:53:26.014Z,100480.07
2018-06-02T21:55:54.034Z,100480.07
2018-06-02T21:58:22.565Z,100482.11
2018-06-02T22:00:50.130Z,100482.38
2018-06-02T22:03:17.820Z,100479.92
2018-06-02T22:05:46.165Z,100483.63
2018-06-02T22:08:14.444Z,100484.43
2018-06-02T22:10:42.006Z,100493.84
2018-06-02T22:13:09.619Z,100490.84
2018-06-02T22:15:37.986Z,100492.34
2018-06-02T22:18:05.586Z,100488.94
2018-06-02T22:20:33.961Z,100489.20
2018-06-02T22:23:01.916Z,100493.15
2018-06-02T22:25:29.478Z,100490.02
2018-06-02T22:27:57.022Z,100489.77
2018-06-02T22:30:25.352Z,100491.94
2018-06-02T22:32:52.897Z,100487.30
2018-06-02T22:35:20.446Z,100490.16
2018-06-02T22:37:48.023Z,100488.52
2018-06-02T22:40:15.599Z,100490.28
2018-06-02T22:42:43.136Z,100491.64
2018-06-02T22:45:10.754Z,100488.79
2018-06-02T22:47:38.304Z,100484.02
2018-06-02T22:50:05.919Z,100485.79
2018-06-02T22:52:33.609Z,100488.13
2018-06-02T22:55:01.877Z,100487.30
2018-06-02T22:57:30.235Z,100489.47
2018-06-02T22:59:57.883Z,100491.09
2018-06-02T23:02:25.458Z,100489.72
2018-06-02T23:04:53.473Z,100489.34
2018-06-02T23:07:21.644Z,100490.00
2018-06-02T23:09:50.196Z,100489.44
2018-06-02T23:12:17.795Z,100482.48
2018-06-02T23:14:46.212Z,100490.49
2018-06-02T23:17:13.809Z,100481.21
2018-06-02T23:19:42.283Z,100484.08
2018-06-02T23:22:31.078Z,100483.09
2018-06-02T23:24:58.613Z,100488.55
2018-06-02T23:27:26.176Z,100487.17
2018-06-02T23:29:54.736Z,100484.98
2018-06-02T23:32:22.277Z,100489.48
2018-06-02T23:34:49.822Z,100487.71
2018-06-02T23:37:17.562Z,100490.71
2018-06-02T23:39:45.111Z,100490.44
2018-06-02T23:42:12.651Z,100485.66
2018-06-02T23:44:40.235Z,100482.81
2018-06-02T23:47:07.774Z,100483.22
2018-06-02T23:49:35.335Z,100486.78
2018-06-02T23:52:02.991Z,100487.46
2018-06-02T23:54:30.610Z,100487.58
2018-06-02T23:56:58.980Z,100488.38
2018-06-02T23:59:27.135Z,100482.53
